sensor_id;sensor_type;location;lat;lon;timestamp;P1;durP1;ratioP1;P2;durP2;ratioP2
21480;SDS011;10902;48.158;8.634;2023-07-28T00:00:23;5.57;;;3.00;;
21480;SDS011;10902;48.158;8.634;2023-07-28T00:03:09;7.18;;;3.88;;
21480;SDS011;10902;48.158;8.634;2023-07-28T00:05:55;7.72;;;3.90;;
21480;SDS011;10902;48.158;8.634;2023-07-28T00:08:40;7.28;;;4.47;;
21480;SDS011;10902;48.158;8.634;2023-07-28T00:11:26;6.15;;;3.70;;
21480;SDS011;10902;48.158;8.634;2023-07-28T00:14:11;8.75;;;4.50;;
21480;SDS011;10902;48.158;8.634;2023-07-28T00:16:57;6.03;;;3.38;;
21480;SDS011;10902;48.158;8.634;2023-07-28T00:19:43;6.22;;;3.40;;
21480;SDS011;10902;48.158;8.634;2023-07-28T00:22:28;5.47;;;3.35;;
21480;SDS011;10902;48.158;8.634;2023-07-28T00:25:14;8.05;;;3.70;;
21480;SDS011;10902;48.158;8.634;2023-07-28T00:27:59;6.15;;;3.30;;
21480;SDS011;10902;48.158;8.634;2023-07-28T00:30:48;8.10;;;3.35;;
21480;SDS011;10902;48.158;8.634;2023-07-28T00:33:36;6.68;;;3.45;;
21480;SDS011;10902;48.158;8.634;2023-07-28T00:36:22;5.90;;;2.90;;
21480;SDS011;10902;48.158;8.634;2023-07-28T00:39:08;5.28;;;3.05;;
21480;SDS011;10902;48.158;8.634;2023-07-28T00:41:53;5.15;;;2.97;;
21480;SDS011;10902;48.158;8.634;2023-07-28T00:44:39;5.68;;;3.10;;
21480;SDS011;10902;48.158;8.634;2023-07-28T00:47:25;5.32;;;3.30;;
21480;SDS011;10902;48.158;8.634;2023-07-28T00:50:10;5.10;;;2.83;;
21480;SDS011;10902;48.158;8.634;2023-07-28T00:52:57;8.65;;;2.85;;
21480;SDS011;10902;48.158;8.634;2023-07-28T00:55:42;5.60;;;3.10;;
21480;SDS011;10902;48.158;8.634;2023-07-28T00:58:29;7.10;;;2.90;;
21480;SDS011;10902;48.158;8.634;2023-07-28T01:01:15;7.03;;;3.13;;
21480;SDS011;10902;48.158;8.634;2023-07-28T01:04:01;6.70;;;3.13;;
21480;SDS011;10902;48.158;8.634;2023-07-28T01:12:35;6.97;;;3.30;;
21480;SDS011;10902;48.158;8.634;2023-07-28T01:15:21;5.60;;;3.22;;
21480;SDS011;10902;48.158;8.634;2023-07-28T01:18:06;5.40;;;3.40;;
21480;SDS011;10902;48.158;8.634;2023-07-28T01:20:52;5.65;;;2.85;;
21480;SDS011;10902;48.158;8.634;2023-07-28T01:23:44;6.15;;;3.17;;
21480;SDS011;10902;48.158;8.634;2023-07-28T01:26:46;6.97;;;3.30;;
21480;SDS011;10902;48.158;8.634;2023-07-28T01:29:33;6.18;;;2.95;;
21480;SDS011;10902;48.158;8.634;2023-07-28T01:32:20;5.80;;;3.15;;
21480;SDS011;10902;48.158;8.634;2023-07-28T01:35:06;5.82;;;3.20;;
21480;SDS011;10902;48.158;8.634;2023-07-28T01:37:52;6.18;;;3.35;;
21480;SDS011;10902;48.158;8.634;2023-07-28T01:40:38;4.35;;;2.80;;
21480;SDS011;10902;48.158;8.634;2023-07-28T01:43:23;5.93;;;3.35;;
21480;SDS011;10902;48.158;8.634;2023-07-28T01:46:09;5.28;;;3.53;;
21480;SDS011;10902;48.158;8.634;2023-07-28T01:48:55;7.95;;;3.50;;
21480;SDS011;10902;48.158;8.634;2023-07-28T01:51:40;5.75;;;3.80;;
21480;SDS011;10902;48.158;8.634;2023-07-28T01:54:26;5.72;;;3.78;;
21480;SDS011;10902;48.158;8.634;2023-07-28T01:57:11;5.63;;;4.22;;
21480;SDS011;10902;48.158;8.634;2023-07-28T01:59:57;5.15;;;3.17;;
21480;SDS011;10902;48.158;8.634;2023-07-28T02:02:43;7.65;;;4.43;;
21480;SDS011;10902;48.158;8.634;2023-07-28T02:05:28;6.53;;;3.90;;
21480;SDS011;10902;48.158;8.634;2023-07-28T02:08:14;7.07;;;3.60;;
21480;SDS011;10902;48.158;8.634;2023-07-28T02:11:00;5.53;;;3.10;;
21480;SDS011;10902;48.158;8.634;2023-07-28T02:13:45;6.85;;;3.08;;
21480;SDS011;10902;48.158;8.634;2023-07-28T02:16:31;4.68;;;2.88;;
21480;SDS011;10902;48.158;8.634;2023-07-28T02:19:17;5.57;;;3.05;;
21480;SDS011;10902;48.158;8.634;2023-07-28T02:22:03;5.65;;;3.47;;
21480;SDS011;10902;48.158;8.634;2023-07-28T02:24:48;5.75;;;3.22;;
21480;SDS011;10902;48.158;8.634;2023-07-28T02:27:34;6.43;;;3.78;;
21480;SDS011;10902;48.158;8.634;2023-07-28T02:30:19;6.45;;;3.78;;
21480;SDS011;10902;48.158;8.634;2023-07-28T02:33:05;5.22;;;3.45;;
21480;SDS011;10902;48.158;8.634;2023-07-28T02:35:51;6.18;;;3.70;;
21480;SDS011;10902;48.158;8.634;2023-07-28T02:38:36;8.10;;;4.15;;
21480;SDS011;10902;48.158;8.634;2023-07-28T02:41:22;8.30;;;4.63;;
21480;SDS011;10902;48.158;8.634;2023-07-28T02:44:08;6.05;;;4.40;;
21480;SDS011;10902;48.158;8.634;2023-07-28T02:46:53;7.47;;;5.18;;
21480;SDS011;10902;48.158;8.634;2023-07-28T02:49:40;7.35;;;5.03;;
21480;SDS011;10902;48.158;8.634;2023-07-28T02:52:26;6.53;;;4.28;;
21480;SDS011;10902;48.158;8.634;2023-07-28T02:55:11;7.38;;;5.07;;
21480;SDS011;10902;48.158;8.634;2023-07-28T02:57:57;8.43;;;5.45;;
21480;SDS011;10902;48.158;8.634;2023-07-28T03:00:43;10.05;;;5.60;;
21480;SDS011;10902;48.158;8.634;2023-07-28T03:03:31;7.30;;;5.43;;
21480;SDS011;10902;48.158;8.634;2023-07-28T03:06:17;7.00;;;5.22;;
21480;SDS011;10902;48.158;8.634;2023-07-28T03:09:02;7.88;;;5.45;;
21480;SDS011;10902;48.158;8.634;2023-07-28T03:11:48;7.60;;;5.72;;
21480;SDS011;10902;48.158;8.634;2023-07-28T03:14:34;7.03;;;5.40;;
21480;SDS011;10902;48.158;8.634;2023-07-28T03:17:19;7.95;;;5.47;;
21480;SDS011;10902;48.158;8.634;2023-07-28T03:20:05;6.95;;;4.63;;
21480;SDS011;10902;48.158;8.634;2023-07-28T03:22:51;10.50;;;5.22;;
21480;SDS011;10902;48.158;8.634;2023-07-28T03:25:36;7.25;;;5.25;;
21480;SDS011;10902;48.158;8.634;2023-07-28T03:28:22;7.45;;;4.70;;
21480;SDS011;10902;48.158;8.634;2023-07-28T03:31:07;7.30;;;5.00;;
21480;SDS011;10902;48.158;8.634;2023-07-28T03:33:53;7.63;;;4.55;;
21480;SDS011;10902;48.158;8.634;2023-07-28T03:36:39;6.53;;;4.90;;
21480;SDS011;10902;48.158;8.634;2023-07-28T03:39:24;8.75;;;4.75;;
21480;SDS011;10902;48.158;8.634;2023-07-28T03:42:10;6.47;;;4.93;;
21480;SDS011;10902;48.158;8.634;2023-07-28T03:44:56;6.53;;;4.50;;
21480;SDS011;10902;48.158;8.634;2023-07-28T03:47:41;7.22;;;4.68;;
21480;SDS011;10902;48.158;8.634;2023-07-28T03:50:27;6.82;;;4.47;;
21480;SDS011;10902;48.158;8.634;2023-07-28T03:53:13;6.80;;;4.68;;
21480;SDS011;10902;48.158;8.634;2023-07-28T03:55:58;8.32;;;5.13;;
21480;SDS011;10902;48.158;8.634;2023-07-28T03:58:44;8.25;;;4.93;;
21480;SDS011;10902;48.158;8.634;2023-07-28T04:01:29;6.80;;;4.80;;
21480;SDS011;10902;48.158;8.634;2023-07-28T04:04:15;8.25;;;4.78;;
21480;SDS011;10902;48.158;8.634;2023-07-28T04:07:00;8.13;;;5.20;;
21480;SDS011;10902;48.158;8.634;2023-07-28T04:09:46;7.50;;;4.85;;
21480;SDS011;10902;48.158;8.634;2023-07-28T04:12:32;7.43;;;4.97;;
21480;SDS011;10902;48.158;8.634;2023-07-28T04:15:17;9.20;;;5.00;;
21480;SDS011;10902;48.158;8.634;2023-07-28T04:18:03;13.23;;;7.50;;
21480;SDS011;10902;48.158;8.634;2023-07-28T04:20:48;8.93;;;5.43;;
21480;SDS011;10902;48.158;8.634;2023-07-28T04:23:34;6.47;;;4.60;;
21480;SDS011;10902;48.158;8.634;2023-07-28T04:26:20;6.68;;;4.47;;
21480;SDS011;10902;48.158;8.634;2023-07-28T04:29:05;7.43;;;4.25;;
21480;SDS011;10902;48.158;8.634;2023-07-28T04:31:51;6.40;;;4.35;;
21480;SDS011;10902;48.158;8.634;2023-07-28T04:34:36;6.57;;;4.47;;
21480;SDS011;10902;48.158;8.634;2023-07-28T04:37:22;8.40;;;5.00;;
21480;SDS011;10902;48.158;8.634;2023-07-28T04:40:08;7.93;;;4.13;;
21480;SDS011;10902;48.158;8.634;2023-07-28T04:42:54;7.88;;;4.55;;
21480;SDS011;10902;48.158;8.634;2023-07-28T04:45:39;12.73;;;6.30;;
21480;SDS011;10902;48.158;8.634;2023-07-28T04:48:25;9.95;;;5.22;;
21480;SDS011;10902;48.158;8.634;2023-07-28T04:51:11;15.18;;;6.53;;
21480;SDS011;10902;48.158;8.634;2023-07-28T04:53:57;9.63;;;6.63;;
21480;SDS011;10902;48.158;8.634;2023-07-28T04:56:42;9.50;;;6.45;;
21480;SDS011;10902;48.158;8.634;2023-07-28T04:59:28;8.50;;;6.18;;
21480;SDS011;10902;48.158;8.634;2023-07-28T05:02:13;9.15;;;6.63;;
21480;SDS011;10902;48.158;8.634;2023-07-28T05:04:59;7.55;;;5.60;;
21480;SDS011;10902;48.158;8.634;2023-07-28T05:07:45;10.07;;;5.78;;
21480;SDS011;10902;48.158;8.634;2023-07-28T05:10:30;9.70;;;6.07;;
21480;SDS011;10902;48.158;8.634;2023-07-28T05:13:16;8.80;;;6.00;;
21480;SDS011;10902;48.158;8.634;2023-07-28T05:16:01;9.07;;;5.80;;
21480;SDS011;10902;48.158;8.634;2023-07-28T05:18:47;8.18;;;5.30;;
21480;SDS011;10902;48.158;8.634;2023-07-28T05:21:33;8.95;;;5.03;;
21480;SDS011;10902;48.158;8.634;2023-07-28T05:24:18;8.20;;;5.30;;
21480;SDS011;10902;48.158;8.634;2023-07-28T05:27:04;11.05;;;5.50;;
21480;SDS011;10902;48.158;8.634;2023-07-28T05:29:50;7.30;;;4.90;;
21480;SDS011;10902;48.158;8.634;2023-07-28T05:32:35;10.98;;;5.22;;
21480;SDS011;10902;48.158;8.634;2023-07-28T05:35:21;9.98;;;4.95;;
21480;SDS011;10902;48.158;8.634;2023-07-28T05:38:06;8.55;;;4.95;;
21480;SDS011;10902;48.158;8.634;2023-07-28T05:40:58;6.20;;;4.25;;
21480;SDS011;10902;48.158;8.634;2023-07-28T05:43:48;7.50;;;4.57;;
21480;SDS011;10902;48.158;8.634;2023-07-28T05:46:33;11.38;;;5.03;;
21480;SDS011;10902;48.158;8.634;2023-07-28T05:49:19;7.93;;;4.45;;
21480;SDS011;10902;48.158;8.634;2023-07-28T05:52:04;9.15;;;4.20;;
21480;SDS011;10902;48.158;8.634;2023-07-28T05:54:50;7.70;;;4.65;;
21480;SDS011;10902;48.158;8.634;2023-07-28T05:57:36;7.68;;;4.70;;
21480;SDS011;10902;48.158;8.634;2023-07-28T06:00:21;10.65;;;4.40;;
21480;SDS011;10902;48.158;8.634;2023-07-28T06:03:09;10.00;;;5.03;;
21480;SDS011;10902;48.158;8.634;2023-07-28T06:05:56;9.77;;;4.78;;
21480;SDS011;10902;48.158;8.634;2023-07-28T06:08:42;7.95;;;4.40;;
21480;SDS011;10902;48.158;8.634;2023-07-28T06:11:27;7.72;;;4.20;;
21480;SDS011;10902;48.158;8.634;2023-07-28T06:14:13;6.85;;;4.10;;
21480;SDS011;10902;48.158;8.634;2023-07-28T06:16:59;7.70;;;4.15;;
21480;SDS011;10902;48.158;8.634;2023-07-28T06:19:44;6.25;;;3.20;;
21480;SDS011;10902;48.158;8.634;2023-07-28T06:22:30;6.82;;;2.85;;
21480;SDS011;10902;48.158;8.634;2023-07-28T06:25:16;4.95;;;2.53;;
21480;SDS011;10902;48.158;8.634;2023-07-28T06:28:01;7.13;;;3.15;;
21480;SDS011;10902;48.158;8.634;2023-07-28T06:30:52;5.93;;;2.40;;
21480;SDS011;10902;48.158;8.634;2023-07-28T06:33:39;4.75;;;2.50;;
21480;SDS011;10902;48.158;8.634;2023-07-28T06:36:24;5.43;;;2.55;;
21480;SDS011;10902;48.158;8.634;2023-07-28T06:39:10;3.88;;;1.98;;
21480;SDS011;10902;48.158;8.634;2023-07-28T06:41:56;4.72;;;2.40;;
21480;SDS011;10902;48.158;8.634;2023-07-28T06:44:42;4.43;;;2.22;;
21480;SDS011;10902;48.158;8.634;2023-07-28T06:47:27;4.90;;;2.33;;
21480;SDS011;10902;48.158;8.634;2023-07-28T06:50:13;5.40;;;2.33;;
21480;SDS011;10902;48.158;8.634;2023-07-28T06:52:59;4.35;;;2.25;;
21480;SDS011;10902;48.158;8.634;2023-07-28T06:55:45;4.93;;;2.20;;
21480;SDS011;10902;48.158;8.634;2023-07-28T06:58:30;4.88;;;2.28;;
21480;SDS011;10902;48.158;8.634;2023-07-28T07:01:16;4.95;;;2.60;;
21480;SDS011;10902;48.158;8.634;2023-07-28T07:04:03;4.63;;;2.47;;
21480;SDS011;10902;48.158;8.634;2023-07-28T07:06:50;5.30;;;2.67;;
21480;SDS011;10902;48.158;8.634;2023-07-28T07:09:35;5.22;;;2.28;;
21480;SDS011;10902;48.158;8.634;2023-07-28T07:12:21;5.18;;;1.90;;
21480;SDS011;10902;48.158;8.634;2023-07-28T07:15:07;4.80;;;2.40;;
21480;SDS011;10902;48.158;8.634;2023-07-28T07:17:53;4.60;;;2.30;;
21480;SDS011;10902;48.158;8.634;2023-07-28T07:20:39;4.03;;;2.05;;
21480;SDS011;10902;48.158;8.634;2023-07-28T07:23:25;6.88;;;2.58;;
21480;SDS011;10902;48.158;8.634;2023-07-28T07:26:10;5.78;;;2.33;;
21480;SDS011;10902;48.158;8.634;2023-07-28T07:28:56;4.78;;;2.45;;
21480;SDS011;10902;48.158;8.634;2023-07-28T07:31:41;5.95;;;2.33;;
21480;SDS011;10902;48.158;8.634;2023-07-28T07:34:27;4.03;;;2.00;;
21480;SDS011;10902;48.158;8.634;2023-07-28T07:37:13;3.78;;;1.98;;
21480;SDS011;10902;48.158;8.634;2023-07-28T07:39:58;5.38;;;2.05;;
21480;SDS011;10902;48.158;8.634;2023-07-28T07:42:46;5.38;;;2.38;;
21480;SDS011;10902;48.158;8.634;2023-07-28T07:45:33;4.65;;;1.90;;
21480;SDS011;10902;48.158;8.634;2023-07-28T07:48:18;4.28;;;1.95;;
21480;SDS011;10902;48.158;8.634;2023-07-28T07:51:04;5.03;;;2.58;;
21480;SDS011;10902;48.158;8.634;2023-07-28T07:53:52;5.82;;;2.03;;
21480;SDS011;10902;48.158;8.634;2023-07-28T07:56:37;3.95;;;1.95;;
21480;SDS011;10902;48.158;8.634;2023-07-28T07:59:23;7.47;;;2.40;;
21480;SDS011;10902;48.158;8.634;2023-07-28T08:02:12;4.18;;;2.10;;
21480;SDS011;10902;48.158;8.634;2023-07-28T08:04:58;4.53;;;1.70;;
21480;SDS011;10902;48.158;8.634;2023-07-28T08:07:44;4.07;;;1.90;;
21480;SDS011;10902;48.158;8.634;2023-07-28T08:10:29;5.93;;;2.28;;
21480;SDS011;10902;48.158;8.634;2023-07-28T08:13:15;5.32;;;2.28;;
21480;SDS011;10902;48.158;8.634;2023-07-28T08:16:01;4.53;;;1.80;;
21480;SDS011;10902;48.158;8.634;2023-07-28T08:18:46;4.45;;;1.95;;
21480;SDS011;10902;48.158;8.634;2023-07-28T08:21:32;4.38;;;1.92;;
21480;SDS011;10902;48.158;8.634;2023-07-28T08:24:21;5.45;;;1.92;;
21480;SDS011;10902;48.158;8.634;2023-07-28T08:27:07;3.67;;;1.83;;
21480;SDS011;10902;48.158;8.634;2023-07-28T08:29:52;5.35;;;2.20;;
21480;SDS011;10902;48.158;8.634;2023-07-28T08:32:38;5.38;;;2.30;;
21480;SDS011;10902;48.158;8.634;2023-07-28T08:35:23;3.83;;;1.95;;
21480;SDS011;10902;48.158;8.634;2023-07-28T08:38:09;4.45;;;2.00;;
21480;SDS011;10902;48.158;8.634;2023-07-28T08:40:57;4.35;;;2.40;;
21480;SDS011;10902;48.158;8.634;2023-07-28T08:43:43;4.07;;;1.90;;
21480;SDS011;10902;48.158;8.634;2023-07-28T08:46:29;4.20;;;2.20;;
21480;SDS011;10902;48.158;8.634;2023-07-28T08:49:15;4.25;;;2.10;;
21480;SDS011;10902;48.158;8.634;2023-07-28T08:52:03;5.53;;;2.15;;
21480;SDS011;10902;48.158;8.634;2023-07-28T08:54:50;4.57;;;2.28;;
21480;SDS011;10902;48.158;8.634;2023-07-28T08:57:36;4.43;;;2.15;;
21480;SDS011;10902;48.158;8.634;2023-07-28T09:00:21;4.32;;;2.20;;
21480;SDS011;10902;48.158;8.634;2023-07-28T09:03:10;4.15;;;1.90;;
21480;SDS011;10902;48.158;8.634;2023-07-28T09:06:02;4.85;;;2.22;;
21480;SDS011;10902;48.158;8.634;2023-07-28T09:08:48;5.28;;;2.30;;
21480;SDS011;10902;48.158;8.634;2023-07-28T09:11:33;4.68;;;1.80;;
21480;SDS011;10902;48.158;8.634;2023-07-28T09:14:29;5.25;;;1.90;;
21480;SDS011;10902;48.158;8.634;2023-07-28T09:17:15;6.32;;;2.20;;
21480;SDS011;10902;48.158;8.634;2023-07-28T09:20:02;3.17;;;1.80;;
21480;SDS011;10902;48.158;8.634;2023-07-28T09:22:50;5.00;;;2.08;;
21480;SDS011;10902;48.158;8.634;2023-07-28T09:25:36;4.97;;;2.47;;
21480;SDS011;10902;48.158;8.634;2023-07-28T09:28:23;3.83;;;1.92;;
21480;SDS011;10902;48.158;8.634;2023-07-28T09:31:30;3.78;;;1.92;;
21480;SDS011;10902;48.158;8.634;2023-07-28T09:34:23;3.67;;;2.00;;
21480;SDS011;10902;48.158;8.634;2023-07-28T09:37:12;5.85;;;2.30;;
21480;SDS011;10902;48.158;8.634;2023-07-28T09:39:58;4.03;;;2.10;;
21480;SDS011;10902;48.158;8.634;2023-07-28T09:42:46;3.80;;;2.00;;
21480;SDS011;10902;48.158;8.634;2023-07-28T09:45:35;5.05;;;2.03;;
21480;SDS011;10902;48.158;8.634;2023-07-28T09:48:22;4.00;;;2.33;;
21480;SDS011;10902;48.158;8.634;2023-07-28T09:51:14;3.92;;;1.85;;
21480;SDS011;10902;48.158;8.634;2023-07-28T09:54:07;7.00;;;2.50;;
21480;SDS011;10902;48.158;8.634;2023-07-28T09:57:03;4.78;;;2.40;;
21480;SDS011;10902;48.158;8.634;2023-07-28T09:59:53;3.92;;;2.20;;
21480;SDS011;10902;48.158;8.634;2023-07-28T10:02:40;4.05;;;1.92;;
21480;SDS011;10902;48.158;8.634;2023-07-28T10:05:25;5.07;;;2.10;;
21480;SDS011;10902;48.158;8.634;2023-07-28T10:08:12;4.38;;;2.00;;
21480;SDS011;10902;48.158;8.634;2023-07-28T10:10:58;4.03;;;2.10;;
21480;SDS011;10902;48.158;8.634;2023-07-28T10:13:46;4.80;;;2.20;;
21480;SDS011;10902;48.158;8.634;2023-07-28T10:16:39;4.93;;;2.13;;
21480;SDS011;10902;48.158;8.634;2023-07-28T10:19:25;4.85;;;2.42;;
21480;SDS011;10902;48.158;8.634;2023-07-28T10:22:11;4.05;;;2.03;;
21480;SDS011;10902;48.158;8.634;2023-07-28T10:25:00;5.05;;;2.15;;
21480;SDS011;10902;48.158;8.634;2023-07-28T10:27:46;4.35;;;2.30;;
21480;SDS011;10902;48.158;8.634;2023-07-28T10:30:35;4.10;;;2.17;;
21480;SDS011;10902;48.158;8.634;2023-07-28T10:39:17;4.38;;;2.20;;
21480;SDS011;10902;48.158;8.634;2023-07-28T10:44:53;4.53;;;2.25;;
21480;SDS011;10902;48.158;8.634;2023-07-28T10:47:39;5.55;;;2.30;;
21480;SDS011;10902;48.158;8.634;2023-07-28T10:50:30;5.15;;;2.40;;
21480;SDS011;10902;48.158;8.634;2023-07-28T10:53:16;4.78;;;2.45;;
21480;SDS011;10902;48.158;8.634;2023-07-28T10:56:02;4.72;;;2.33;;
21480;SDS011;10902;48.158;8.634;2023-07-28T10:58:58;3.90;;;2.28;;
21480;SDS011;10902;48.158;8.634;2023-07-28T11:01:49;5.95;;;2.55;;
21480;SDS011;10902;48.158;8.634;2023-07-28T11:04:34;5.75;;;2.53;;
21480;SDS011;10902;48.158;8.634;2023-07-28T11:07:20;4.75;;;2.50;;
21480;SDS011;10902;48.158;8.634;2023-07-28T11:10:06;4.65;;;2.40;;
21480;SDS011;10902;48.158;8.634;2023-07-28T11:12:52;4.40;;;2.30;;
21480;SDS011;10902;48.158;8.634;2023-07-28T11:15:38;4.53;;;2.50;;
21480;SDS011;10902;48.158;8.634;2023-07-28T11:18:25;6.60;;;2.30;;
21480;SDS011;10902;48.158;8.634;2023-07-28T11:21:11;4.22;;;2.40;;
21480;SDS011;10902;48.158;8.634;2023-07-28T11:23:56;5.13;;;2.60;;
21480;SDS011;10902;48.158;8.634;2023-07-28T11:26:42;4.78;;;2.45;;
21480;SDS011;10902;48.158;8.634;2023-07-28T11:29:30;4.93;;;2.50;;
21480;SDS011;10902;48.158;8.634;2023-07-28T11:32:17;4.63;;;2.53;;
21480;SDS011;10902;48.158;8.634;2023-07-28T11:35:06;4.82;;;2.63;;
21480;SDS011;10902;48.158;8.634;2023-07-28T11:37:54;4.30;;;2.33;;
21480;SDS011;10902;48.158;8.634;2023-07-28T11:40:41;3.92;;;2.38;;
21480;SDS011;10902;48.158;8.634;2023-07-28T11:43:27;5.80;;;2.65;;
21480;SDS011;10902;48.158;8.634;2023-07-28T11:49:19;4.88;;;2.53;;
21480;SDS011;10902;48.158;8.634;2023-07-28T11:52:08;4.40;;;2.40;;
21480;SDS011;10902;48.158;8.634;2023-07-28T11:54:53;4.53;;;2.65;;
21480;SDS011;10902;48.158;8.634;2023-07-28T11:57:39;4.95;;;2.80;;
21480;SDS011;10902;48.158;8.634;2023-07-28T12:00:28;4.70;;;2.20;;
21480;SDS011;10902;48.158;8.634;2023-07-28T12:03:20;4.47;;;2.72;;
21480;SDS011;10902;48.158;8.634;2023-07-28T12:06:15;4.63;;;2.30;;
21480;SDS011;10902;48.158;8.634;2023-07-28T12:09:04;4.70;;;2.30;;
21480;SDS011;10902;48.158;8.634;2023-07-28T12:11:53;4.97;;;2.30;;
21480;SDS011;10902;48.158;8.634;2023-07-28T12:14:39;4.28;;;2.38;;
21480;SDS011;10902;48.158;8.634;2023-07-28T12:17:25;4.40;;;2.60;;
21480;SDS011;10902;48.158;8.634;2023-07-28T12:20:12;5.18;;;2.42;;
21480;SDS011;10902;48.158;8.634;2023-07-28T12:23:01;3.85;;;2.40;;
21480;SDS011;10902;48.158;8.634;2023-07-28T12:25:48;5.10;;;2.55;;
21480;SDS011;10902;48.158;8.634;2023-07-28T12:28:34;5.43;;;2.60;;
21480;SDS011;10902;48.158;8.634;2023-07-28T12:31:19;6.15;;;2.65;;
21480;SDS011;10902;48.158;8.634;2023-07-28T12:34:05;4.85;;;2.80;;
21480;SDS011;10902;48.158;8.634;2023-07-28T12:36:52;4.20;;;2.30;;
21480;SDS011;10902;48.158;8.634;2023-07-28T12:39:37;5.03;;;2.60;;
21480;SDS011;10902;48.158;8.634;2023-07-28T12:42:24;4.55;;;2.50;;
21480;SDS011;10902;48.158;8.634;2023-07-28T12:45:10;5.40;;;2.60;;
21480;SDS011;10902;48.158;8.634;2023-07-28T12:47:56;4.60;;;2.63;;
21480;SDS011;10902;48.158;8.634;2023-07-28T12:50:41;5.40;;;2.40;;
21480;SDS011;10902;48.158;8.634;2023-07-28T12:53:27;4.72;;;2.53;;
21480;SDS011;10902;48.158;8.634;2023-07-28T12:56:13;4.82;;;2.90;;
21480;SDS011;10902;48.158;8.634;2023-07-28T12:58:58;5.07;;;2.50;;
21480;SDS011;10902;48.158;8.634;2023-07-28T13:01:44;5.45;;;2.70;;
21480;SDS011;10902;48.158;8.634;2023-07-28T13:04:29;6.30;;;3.25;;
21480;SDS011;10902;48.158;8.634;2023-07-28T13:07:15;5.10;;;2.78;;
21480;SDS011;10902;48.158;8.634;2023-07-28T13:10:01;5.10;;;2.78;;
21480;SDS011;10902;48.158;8.634;2023-07-28T13:12:47;4.68;;;2.63;;
21480;SDS011;10902;48.158;8.634;2023-07-28T13:15:32;5.03;;;3.35;;
21480;SDS011;10902;48.158;8.634;2023-07-28T13:18:18;4.60;;;2.78;;
21480;SDS011;10902;48.158;8.634;2023-07-28T13:21:03;4.75;;;2.75;;
21480;SDS011;10902;48.158;8.634;2023-07-28T13:23:49;4.20;;;2.80;;
21480;SDS011;10902;48.158;8.634;2023-07-28T13:26:35;5.40;;;2.65;;
21480;SDS011;10902;48.158;8.634;2023-07-28T13:29:20;6.00;;;2.97;;
21480;SDS011;10902;48.158;8.634;2023-07-28T13:32:15;5.95;;;3.10;;
21480;SDS011;10902;48.158;8.634;2023-07-28T13:35:02;6.05;;;3.45;;
21480;SDS011;10902;48.158;8.634;2023-07-28T13:37:48;6.20;;;2.80;;
21480;SDS011;10902;48.158;8.634;2023-07-28T13:40:34;5.20;;;2.90;;
21480;SDS011;10902;48.158;8.634;2023-07-28T13:43:20;4.93;;;2.83;;
21480;SDS011;10902;48.158;8.634;2023-07-28T13:46:06;7.40;;;3.10;;
21480;SDS011;10902;48.158;8.634;2023-07-28T13:48:52;5.80;;;2.30;;
21480;SDS011;10902;48.158;8.634;2023-07-28T13:51:37;5.28;;;2.88;;
21480;SDS011;10902;48.158;8.634;2023-07-28T13:54:23;4.47;;;2.70;;
21480;SDS011;10902;48.158;8.634;2023-07-28T13:57:08;5.57;;;3.08;;
21480;SDS011;10902;48.158;8.634;2023-07-28T13:59:54;5.00;;;2.75;;
21480;SDS011;10902;48.158;8.634;2023-07-28T14:02:49;3.80;;;2.33;;
21480;SDS011;10902;48.158;8.634;2023-07-28T14:05:58;5.60;;;2.50;;
21480;SDS011;10902;48.158;8.634;2023-07-28T14:08:50;5.15;;;2.90;;
21480;SDS011;10902;48.158;8.634;2023-07-28T14:12:46;4.20;;;1.90;;
21480;SDS011;10902;48.158;8.634;2023-07-28T14:15:32;3.72;;;1.92;;
21480;SDS011;10902;48.158;8.634;2023-07-28T14:18:18;4.53;;;1.92;;
21480;SDS011;10902;48.158;8.634;2023-07-28T14:21:04;4.38;;;2.17;;
21480;SDS011;10902;48.158;8.634;2023-07-28T14:23:49;4.35;;;2.15;;
21480;SDS011;10902;48.158;8.634;2023-07-28T14:26:35;5.43;;;2.00;;
21480;SDS011;10902;48.158;8.634;2023-07-28T14:29:21;5.60;;;2.25;;
21480;SDS011;10902;48.158;8.634;2023-07-28T14:32:07;3.88;;;1.90;;
21480;SDS011;10902;48.158;8.634;2023-07-28T14:34:53;3.72;;;1.88;;
21480;SDS011;10902;48.158;8.634;2023-07-28T14:37:39;2.85;;;1.23;;
21480;SDS011;10902;48.158;8.634;2023-07-28T14:40:25;3.53;;;1.48;;
21480;SDS011;10902;48.158;8.634;2023-07-28T14:43:12;3.28;;;1.30;;
21480;SDS011;10902;48.158;8.634;2023-07-28T14:45:57;3.60;;;1.70;;
21480;SDS011;10902;48.158;8.634;2023-07-28T14:48:43;3.60;;;1.42;;
21480;SDS011;10902;48.158;8.634;2023-07-28T14:51:29;3.25;;;1.42;;
21480;SDS011;10902;48.158;8.634;2023-07-28T14:54:14;4.18;;;1.25;;
21480;SDS011;10902;48.158;8.634;2023-07-28T14:57:00;3.20;;;1.25;;
21480;SDS011;10902;48.158;8.634;2023-07-28T14:59:45;2.90;;;1.30;;
21480;SDS011;10902;48.158;8.634;2023-07-28T15:02:32;3.10;;;1.30;;
21480;SDS011;10902;48.158;8.634;2023-07-28T15:05:18;2.85;;;1.17;;
21480;SDS011;10902;48.158;8.634;2023-07-28T15:08:03;3.00;;;1.10;;
21480;SDS011;10902;48.158;8.634;2023-07-28T15:10:49;2.83;;;1.00;;
21480;SDS011;10902;48.158;8.634;2023-07-28T15:13:36;2.90;;;1.10;;
21480;SDS011;10902;48.158;8.634;2023-07-28T15:16:21;3.55;;;1.30;;
21480;SDS011;10902;48.158;8.634;2023-07-28T15:19:07;3.03;;;1.13;;
21480;SDS011;10902;48.158;8.634;2023-07-28T15:21:53;4.22;;;1.05;;
21480;SDS011;10902;48.158;8.634;2023-07-28T15:24:38;2.85;;;0.90;;
21480;SDS011;10902;48.158;8.634;2023-07-28T15:27:24;2.90;;;1.10;;
21480;SDS011;10902;48.158;8.634;2023-07-28T15:30:09;3.03;;;1.25;;
21480;SDS011;10902;48.158;8.634;2023-07-28T15:32:55;2.45;;;1.10;;
21480;SDS011;10902;48.158;8.634;2023-07-28T15:35:41;2.70;;;1.10;;
21480;SDS011;10902;48.158;8.634;2023-07-28T15:38:26;2.92;;;1.20;;
21480;SDS011;10902;48.158;8.634;2023-07-28T15:41:12;3.35;;;1.25;;
21480;SDS011;10902;48.158;8.634;2023-07-28T15:43:58;2.97;;;1.10;;
21480;SDS011;10902;48.158;8.634;2023-07-28T15:46:43;3.25;;;1.10;;
21480;SDS011;10902;48.158;8.634;2023-07-28T15:49:29;3.47;;;1.05;;
21480;SDS011;10902;48.158;8.634;2023-07-28T15:52:14;3.97;;;1.38;;
21480;SDS011;10902;48.158;8.634;2023-07-28T15:55:00;3.42;;;1.33;;
21480;SDS011;10902;48.158;8.634;2023-07-28T15:57:48;3.10;;;1.10;;
21480;SDS011;10902;48.158;8.634;2023-07-28T16:00:34;2.83;;;1.27;;
21480;SDS011;10902;48.158;8.634;2023-07-28T16:03:19;3.50;;;1.25;;
21480;SDS011;10902;48.158;8.634;2023-07-28T16:06:05;3.50;;;1.30;;
21480;SDS011;10902;48.158;8.634;2023-07-28T16:08:50;3.35;;;1.35;;
21480;SDS011;10902;48.158;8.634;2023-07-28T16:11:36;2.97;;;1.30;;
21480;SDS011;10902;48.158;8.634;2023-07-28T16:14:22;3.10;;;1.20;;
21480;SDS011;10902;48.158;8.634;2023-07-28T16:17:08;3.35;;;1.30;;
21480;SDS011;10902;48.158;8.634;2023-07-28T16:19:54;3.70;;;1.50;;
21480;SDS011;10902;48.158;8.634;2023-07-28T16:22:39;3.70;;;1.70;;
21480;SDS011;10902;48.158;8.634;2023-07-28T16:25:25;3.33;;;1.58;;
21480;SDS011;10902;48.158;8.634;2023-07-28T16:28:10;3.70;;;1.50;;
21480;SDS011;10902;48.158;8.634;2023-07-28T16:30:56;3.38;;;1.50;;
21480;SDS011;10902;48.158;8.634;2023-07-28T16:33:42;4.57;;;1.50;;
21480;SDS011;10902;48.158;8.634;2023-07-28T16:36:29;3.72;;;1.70;;
21480;SDS011;10902;48.158;8.634;2023-07-28T16:39:15;3.47;;;1.50;;
21480;SDS011;10902;48.158;8.634;2023-07-28T16:42:00;4.85;;;1.65;;
21480;SDS011;10902;48.158;8.634;2023-07-28T16:44:47;3.58;;;1.67;;
21480;SDS011;10902;48.158;8.634;2023-07-28T16:47:33;4.35;;;1.75;;
21480;SDS011;10902;48.158;8.634;2023-07-28T16:50:21;4.45;;;1.52;;
21480;SDS011;10902;48.158;8.634;2023-07-28T16:53:07;5.53;;;2.15;;
21480;SDS011;10902;48.158;8.634;2023-07-28T16:55:52;4.22;;;1.90;;
21480;SDS011;10902;48.158;8.634;2023-07-28T16:58:38;4.30;;;2.05;;
21480;SDS011;10902;48.158;8.634;2023-07-28T17:01:23;4.40;;;1.80;;